Time;durP1;ratioP1;P1;durP2;ratioP2;P2;SDS_P1;SDS_P2;PMS_P1;PMS_P2;Temp;Humidity;BMP_temperature;BMP_pressure;BME280_temperature;BME280_humidity;BME280_pressure;Samples;Min_cycle;Max_cycle;Signal;HPM_P1;HPM_P2
2023/06/02 00:02:07;0.00;0.00;0.62;0.00;0.00;0.62;4.90;2.90;;;25.80;22.30;;;;;;2257162;61;20401;-69
2023/06/02 00:04:52;0.00;0.00;0.62;0.00;0.00;0.62;6.23;2.90;;;25.80;22.30;;;;;;2257468;61;20397;-69
2023/06/02 00:07:37;0.00;0.00;0.62;0.00;0.00;0.62;3.97;2.33;;;25.80;22.30;;;;;;2257411;61;20779;-69
2023/06/02 00:10:22;0.00;0.00;0.62;0.00;0.00;0.62;4.57;2.60;;;25.80;22.30;;;;;;2257286;61;20413;-69
2023/06/02 00:13:07;0.00;0.00;0.62;0.00;0.00;0.62;5.17;2.60;;;25.80;22.30;;;;;;2257387;61;20417;-69
2023/06/02 00:15:54;0.00;0.00;0.62;0.00;0.00;0.62;4.80;2.50;;;25.80;22.30;;;;;;2257252;61;20762;-69
2023/06/02 00:18:39;0.00;0.00;0.62;0.00;0.00;0.62;6.17;2.43;;;25.80;22.30;;;;;;2257200;61;20421;-69
2023/06/02 00:21:26;0.00;0.00;0.62;0.00;0.00;0.62;3.93;2.30;;;25.80;22.30;;;;;;2257018;61;20421;-69
2023/06/02 00:24:11;0.00;0.00;0.62;0.00;0.00;0.62;3.00;2.33;;;25.80;22.30;;;;;;2257610;61;20349;-69
2023/06/02 00:26:56;0.00;0.00;0.62;0.00;0.00;0.62;3.90;2.27;;;25.80;22.30;;;;;;2256814;61;20470;-69
2023/06/02 00:29:41;0.00;0.00;0.62;0.00;0.00;0.62;4.40;2.43;;;25.80;22.20;;;;;;2256345;61;20374;-69
2023/06/02 00:32:27;0.00;0.00;0.62;0.00;0.00;0.62;3.80;2.20;;;25.70;22.20;;;;;;2256488;61;20424;-69
2023/06/02 00:35:12;0.00;0.00;0.62;0.00;0.00;0.62;3.00;1.97;;;25.70;22.20;;;;;;2256638;61;20405;-70
2023/06/02 00:38:02;0.00;0.00;0.62;0.00;0.00;0.62;4.50;2.43;;;25.70;22.20;;;;;;2256216;61;20452;-68
2023/06/02 00:40:48;0.00;0.00;0.62;0.00;0.00;0.62;3.20;1.83;;;25.70;22.20;;;;;;2256748;61;20629;-68
2023/06/02 00:43:33;0.00;0.00;0.62;0.00;0.00;0.62;3.50;2.23;;;25.70;22.20;;;;;;2257207;61;20889;-68
2023/06/02 00:46:18;0.00;0.00;0.62;0.00;0.00;0.62;2.60;2.00;;;25.70;22.20;;;;;;2257732;61;20373;-69
2023/06/02 00:49:06;0.00;0.00;0.62;0.00;0.00;0.62;3.73;2.10;;;25.70;22.20;;;;;;2257787;61;20354;-68
2023/06/02 00:51:53;0.00;0.00;0.62;0.00;0.00;0.62;2.33;1.63;;;25.70;22.20;;;;;;2257034;61;20404;-69
2023/06/02 00:54:38;0.00;0.00;0.62;0.00;0.00;0.62;4.50;2.20;;;25.70;22.20;;;;;;2257441;61;20771;-68
2023/06/02 00:57:28;0.00;0.00;0.62;0.00;0.00;0.62;4.00;1.87;;;25.70;22.20;;;;;;2258058;61;20390;-69
2023/06/02 01:00:14;0.00;0.00;0.62;0.00;0.00;0.62;4.83;2.90;;;25.70;22.20;;;;;;2257061;61;20362;-69
2023/06/02 01:02:59;0.00;0.00;0.62;0.00;0.00;0.62;6.57;2.53;;;25.70;22.20;;;;;;2257821;61;20436;-68
2023/06/02 01:05:47;0.00;0.00;0.62;0.00;0.00;0.62;3.37;1.93;;;25.70;22.70;;;;;;2257728;61;20517;-69
2023/06/02 01:08:37;0.00;0.00;0.62;0.00;0.00;0.62;3.77;1.97;;;25.70;22.20;;;;;;2257897;61;20393;-69
2023/06/02 01:11:22;0.00;0.00;0.62;0.00;0.00;0.62;3.27;1.80;;;25.70;22.20;;;;;;2257036;61;20381;-69
2023/06/02 01:14:08;0.00;0.00;0.62;0.00;0.00;0.62;4.63;2.20;;;25.70;22.10;;;;;;2257270;61;20346;-68
2023/06/02 01:16:53;0.00;0.00;0.62;0.00;0.00;0.62;4.03;2.40;;;25.70;22.10;;;;;;2257516;61;20358;-68
2023/06/02 01:19:40;0.00;0.00;0.62;0.00;0.00;0.62;3.33;1.80;;;25.70;22.10;;;;;;2257570;61;20350;-68
2023/06/02 01:22:29;0.00;0.00;0.62;0.00;0.00;0.62;4.90;2.30;;;25.60;22.00;;;;;;2257711;61;20377;-71
2023/06/02 01:25:21;0.00;0.00;0.62;0.00;0.00;0.62;3.90;2.30;;;25.60;22.00;;;;;;2257530;61;20362;-69
2023/06/02 01:28:06;0.00;0.00;0.62;0.00;0.00;0.62;3.40;2.13;;;25.60;22.00;;;;;;2257138;61;20401;-69
2023/06/02 01:31:00;0.00;0.00;0.62;0.00;0.00;0.62;2.97;2.00;;;25.60;22.00;;;;;;2257091;61;20793;-69
2023/06/02 01:33:55;0.00;0.00;0.62;0.00;0.00;0.62;2.63;2.03;;;25.60;22.00;;;;;;2257587;61;20349;-69
2023/06/02 01:36:42;0.00;0.00;0.62;0.00;0.00;0.62;3.60;1.83;;;25.60;22.10;;;;;;2257455;61;20378;-69
2023/06/02 01:39:28;0.00;0.00;0.62;0.00;0.00;0.62;3.17;1.70;;;25.60;22.00;;;;;;2257510;61;20401;-69
2023/06/02 01:42:15;0.00;0.00;0.62;0.00;0.00;0.62;3.23;1.80;;;25.60;22.00;;;;;;2257236;61;20389;-69
2023/06/02 01:45:02;0.00;0.00;0.62;0.00;0.00;0.62;3.20;1.80;;;25.60;22.00;;;;;;2257463;61;20350;-70
2023/06/02 01:47:47;0.00;0.00;0.62;0.00;0.00;0.62;4.50;1.70;;;25.60;22.10;;;;;;2257498;61;20417;-69
2023/06/02 01:50:34;0.00;0.00;0.62;0.00;0.00;0.62;3.70;1.90;;;25.60;22.00;;;;;;2256902;61;20386;-70
2023/06/02 01:53:20;0.00;0.00;0.62;0.00;0.00;0.62;4.33;1.77;;;25.60;22.10;;;;;;2257367;61;20841;-70
2023/06/02 01:56:06;0.00;0.00;0.62;0.00;0.00;0.62;3.73;1.80;;;25.60;22.00;;;;;;2256931;61;20427;-69
2023/06/02 01:58:52;0.00;0.00;0.62;0.00;0.00;0.62;2.20;1.30;;;25.60;22.00;;;;;;2257320;61;20393;-68
2023/06/02 02:01:40;0.00;0.00;0.62;0.00;0.00;0.62;3.10;1.83;;;25.60;22.00;;;;;;2256904;61;20402;-71
2023/06/02 02:04:25;0.00;0.00;0.62;0.00;0.00;0.62;3.17;1.77;;;25.50;22.00;;;;;;2257177;61;20905;-69
2023/06/02 02:07:11;0.00;0.00;0.62;0.00;0.00;0.62;3.60;2.07;;;25.50;22.00;;;;;;2257449;61;20366;-69
2023/06/02 02:09:56;0.00;0.00;0.62;0.00;0.00;0.62;2.90;1.90;;;25.50;22.00;;;;;;2257375;61;20398;-69
2023/06/02 02:12:41;0.00;0.00;0.62;0.00;0.00;0.62;4.40;2.20;;;25.50;22.00;;;;;;2257002;61;20466;-70
2023/06/02 02:15:27;0.00;0.00;0.62;0.00;0.00;0.62;4.93;2.17;;;25.50;22.00;;;;;;2257179;61;20370;-69
2023/06/02 02:18:13;0.00;0.00;0.62;0.00;0.00;0.62;3.50;1.83;;;25.50;22.00;;;;;;2256840;61;20417;-69
2023/06/02 02:20:57;0.00;0.00;0.62;0.00;0.00;0.62;2.70;1.70;;;25.50;22.00;;;;;;2256992;61;20385;-69
2023/06/02 02:23:42;0.00;0.00;0.62;0.00;0.00;0.62;4.30;2.50;;;25.50;22.00;;;;;;2257159;61;20429;-69
2023/06/02 02:26:27;0.00;0.00;0.62;0.00;0.00;0.62;2.40;1.50;;;25.50;22.10;;;;;;2257351;61;20369;-69
2023/06/02 02:29:13;0.00;0.00;0.62;0.00;0.00;0.62;3.03;1.97;;;25.50;22.10;;;;;;2257258;61;20365;-69
2023/06/02 02:32:00;0.00;0.00;0.62;0.00;0.00;0.62;3.00;1.80;;;25.50;22.10;;;;;;2257107;61;20388;-69
2023/06/02 02:34:46;0.00;0.00;0.62;0.00;0.00;0.62;2.30;1.63;;;25.50;22.10;;;;;;2257133;61;20366;-69
2023/06/02 02:37:31;0.00;0.00;0.62;0.00;0.00;0.62;2.40;1.43;;;25.50;22.10;;;;;;2256604;61;20394;-69
2023/06/02 02:40:16;0.00;0.00;0.62;0.00;0.00;0.62;3.03;1.80;;;25.50;22.10;;;;;;2256725;61;20588;-69
2023/06/02 02:43:01;0.00;0.00;0.62;0.00;0.00;0.62;3.00;1.50;;;25.50;22.10;;;;;;2256379;61;20393;-68
2023/06/02 02:45:46;0.00;0.00;0.62;0.00;0.00;0.62;2.43;1.73;;;25.50;22.10;;;;;;2257390;61;20393;-68
2023/06/02 02:48:33;0.00;0.00;0.62;0.00;0.00;0.62;3.20;2.07;;;25.50;22.10;;;;;;2257308;61;20831;-69
2023/06/02 02:51:19;0.00;0.00;0.62;0.00;0.00;0.62;3.23;1.77;;;25.50;22.10;;;;;;2256203;61;20421;-68
2023/06/02 02:54:04;0.00;0.00;0.62;0.00;0.00;0.62;3.03;1.83;;;25.50;22.60;;;;;;2256904;61;20345;-69
2023/06/02 02:56:50;0.00;0.00;0.62;0.00;0.00;0.62;3.97;2.00;;;25.50;22.10;;;;;;2256475;61;20907;-70
2023/06/02 02:59:35;0.00;0.00;0.62;0.00;0.00;0.62;2.17;1.43;;;25.50;22.10;;;;;;2256807;61;20366;-68
2023/06/02 03:02:21;0.00;0.00;0.62;0.00;0.00;0.62;3.60;1.90;;;25.50;22.60;;;;;;2256454;61;20428;-68
2023/06/02 03:05:10;0.00;0.00;0.62;0.00;0.00;0.62;2.67;1.77;;;25.50;22.10;;;;;;2256818;61;20342;-69
2023/06/02 03:07:55;0.00;0.00;0.62;0.00;0.00;0.62;4.37;2.20;;;25.50;22.10;;;;;;2256751;61;20350;-69
2023/06/02 03:10:40;0.00;0.00;0.62;0.00;0.00;0.62;3.17;1.80;;;25.50;22.10;;;;;;2256595;61;20421;-69
2023/06/02 03:13:26;0.00;0.00;0.62;0.00;0.00;0.62;2.73;1.70;;;25.50;22.10;;;;;;2256472;61;20413;-70
2023/06/02 03:16:11;0.00;0.00;0.62;0.00;0.00;0.62;2.57;1.40;;;25.50;22.10;;;;;;2256578;61;20374;-69
2023/06/02 03:18:57;0.00;0.00;0.62;0.00;0.00;0.62;4.67;2.23;;;25.50;22.10;;;;;;2256528;61;20928;-68
2023/06/02 03:21:44;0.00;0.00;0.62;0.00;0.00;0.62;4.53;2.17;;;25.50;22.10;;;;;;2256854;61;20799;-69
2023/06/02 03:24:31;0.00;0.00;0.62;0.00;0.00;0.62;4.20;2.00;;;25.50;22.10;;;;;;2256640;61;20349;-68
2023/06/02 03:27:19;0.00;0.00;0.62;0.00;0.00;0.62;2.90;1.80;;;25.50;22.10;;;;;;2256720;61;20350;-69
2023/06/02 03:30:11;0.00;0.00;0.62;0.00;0.00;0.62;3.60;2.03;;;25.50;22.10;;;;;;2256543;61;20369;-70
2023/06/02 03:32:56;0.00;0.00;0.62;0.00;0.00;0.62;2.70;1.63;;;25.50;22.10;;;;;;2256513;61;20417;-69
2023/06/02 03:35:41;0.00;0.00;0.62;0.00;0.00;0.62;2.40;1.80;;;25.40;22.10;;;;;;2256422;61;20362;-69
2023/06/02 03:38:27;0.00;0.00;0.62;0.00;0.00;0.62;4.53;1.77;;;25.40;22.10;;;;;;2257036;61;20406;-68
2023/06/02 03:41:12;0.00;0.00;0.62;0.00;0.00;0.62;3.10;1.97;;;25.40;22.10;;;;;;2256453;61;20435;-70
2023/06/02 03:43:57;0.00;0.00;0.62;0.00;0.00;0.62;2.00;1.40;;;25.40;22.10;;;;;;2257024;61;20588;-69
2023/06/02 03:46:42;0.00;0.00;0.62;0.00;0.00;0.62;3.50;2.03;;;25.40;22.10;;;;;;2256627;61;20341;-69
2023/06/02 03:49:29;0.00;0.00;0.62;0.00;0.00;0.62;2.83;1.90;;;25.40;22.10;;;;;;2256969;61;20374;-71
2023/06/02 03:52:16;0.00;0.00;0.62;0.00;0.00;0.62;3.37;2.00;;;25.40;22.10;;;;;;2256559;61;20433;-70
2023/06/02 03:55:02;0.00;0.00;0.62;0.00;0.00;0.62;3.20;1.80;;;25.40;22.10;;;;;;2256612;61;20465;-69
2023/06/02 03:57:47;0.00;0.00;0.62;0.00;0.00;0.62;3.77;1.90;;;25.40;22.10;;;;;;2255915;61;20946;-69
2023/06/02 04:00:33;0.00;0.00;0.62;0.00;0.00;0.62;1.93;1.50;;;25.40;22.10;;;;;;2255931;61;20862;-68
2023/06/02 04:03:19;0.00;0.00;0.62;0.00;0.00;0.62;3.00;2.00;;;25.40;22.10;;;;;;2256223;61;20489;-68
2023/06/02 04:06:06;0.00;0.00;0.62;0.00;0.00;0.62;4.80;1.60;;;25.40;22.10;;;;;;2256221;61;20958;-69
2023/06/02 04:08:52;0.00;0.00;0.62;0.00;0.00;0.62;3.20;2.03;;;25.40;22.10;;;;;;2256112;61;20416;-69
2023/06/02 04:11:38;0.00;0.00;0.62;0.00;0.00;0.62;2.43;1.50;;;25.40;22.10;;;;;;2256193;61;20390;-69
2023/06/02 04:14:25;0.00;0.00;0.62;0.00;0.00;0.62;3.53;2.10;;;25.40;22.10;;;;;;2256951;61;20366;-69
2023/06/02 04:17:10;0.00;0.00;0.62;0.00;0.00;0.62;3.30;1.87;;;25.40;22.10;;;;;;2257079;61;20408;-68
2023/06/02 04:19:55;0.00;0.00;0.62;0.00;0.00;0.62;3.60;2.07;;;25.40;22.10;;;;;;2257139;61;20358;-69
2023/06/02 04:22:40;0.00;0.00;0.62;0.00;0.00;0.62;5.10;2.10;;;25.40;22.10;;;;;;2257419;61;20782;-69
2023/06/02 04:25:25;0.00;0.00;0.62;0.00;0.00;0.62;2.90;1.97;;;25.40;22.10;;;;;;2257612;61;20357;-69
2023/06/02 04:28:11;0.00;0.00;0.62;0.00;0.00;0.62;5.93;2.40;;;25.40;22.10;;;;;;2257246;61;20362;-69
2023/06/02 04:30:59;0.00;0.00;0.62;0.00;0.00;0.62;3.93;1.83;;;25.40;22.10;;;;;;2256973;61;20925;-69
2023/06/02 04:33:46;0.00;0.00;0.62;0.00;0.00;0.62;2.40;1.50;;;25.40;22.10;;;;;;2257500;61;20909;-69
2023/06/02 04:36:32;0.00;0.00;0.62;0.00;0.00;0.62;4.40;2.00;;;25.40;22.10;;;;;;2257054;61;20436;-69
2023/06/02 04:39:19;0.00;0.00;0.62;0.00;0.00;0.62;3.70;2.10;;;25.40;22.20;;;;;;2257351;61;20803;-68
2023/06/02 04:42:05;0.00;0.00;0.62;0.00;0.00;0.62;3.03;2.03;;;25.40;22.20;;;;;;2256706;61;20429;-68
2023/06/02 04:44:52;0.00;0.00;0.62;0.00;0.00;0.62;3.60;2.30;;;25.40;22.20;;;;;;2257691;61;20389;-70
2023/06/02 04:47:37;0.00;0.00;0.62;0.00;0.00;0.62;3.50;2.43;;;25.40;22.20;;;;;;2257205;61;20416;-70
2023/06/02 04:50:22;0.00;0.00;0.62;0.00;0.00;0.62;2.70;2.20;;;25.40;22.20;;;;;;2257459;61;20394;-70
2023/06/02 04:53:07;0.00;0.00;0.62;0.00;0.00;0.62;3.03;2.07;;;25.40;22.20;;;;;;2257294;61;20350;-69
2023/06/02 04:55:52;0.00;0.00;0.62;0.00;0.00;0.62;3.53;2.00;;;25.40;22.20;;;;;;2257093;61;20759;-69
2023/06/02 04:58:37;0.00;0.00;0.62;0.00;0.00;0.62;3.60;2.00;;;25.40;22.20;;;;;;2257263;61;20418;-69
2023/06/02 05:01:24;0.00;0.00;0.62;0.00;0.00;0.62;3.10;2.40;;;25.40;22.70;;;;;;2256875;61;20386;-68
2023/06/02 05:04:08;0.00;0.00;0.62;0.00;0.00;0.62;3.50;2.20;;;25.40;22.20;;;;;;2257065;61;20409;-70
2023/06/02 05:06:54;0.00;0.00;0.62;0.00;0.00;0.62;4.90;3.00;;;25.40;22.20;;;;;;2257276;61;20743;-69
2023/06/02 05:09:39;0.00;0.00;0.62;0.00;0.00;0.62;4.00;2.40;;;25.40;22.20;;;;;;2257134;61;20859;-69
2023/06/02 05:12:27;0.00;0.00;0.62;0.00;0.00;0.62;5.17;2.63;;;25.40;22.20;;;;;;2256946;61;20429;-69
2023/06/02 05:15:13;0.00;0.00;0.62;0.00;0.00;0.62;5.43;2.77;;;25.40;22.20;;;;;;2256887;61;20370;-68
2023/06/02 05:17:59;0.00;0.00;0.62;0.00;0.00;0.62;4.60;2.97;;;25.40;22.20;;;;;;2256980;61;20393;-69
2023/06/02 05:20:44;0.00;0.00;0.62;0.00;0.00;0.62;4.07;2.70;;;25.40;22.30;;;;;;2256911;61;20402;-69
2023/06/02 05:23:30;0.00;0.00;0.62;0.00;0.00;0.62;4.30;2.93;;;25.40;22.30;;;;;;2257645;61;20834;-69
2023/06/02 05:26:15;0.00;0.00;0.62;0.00;0.00;0.62;5.97;3.67;;;25.40;22.30;;;;;;2257434;61;20369;-69
2023/06/02 05:29:00;0.00;0.00;0.62;0.00;0.00;0.62;4.67;3.57;;;25.30;22.20;;;;;;2256966;61;20461;-69
2023/06/02 05:31:46;0.00;0.00;0.62;0.00;0.00;0.62;5.23;3.50;;;25.40;22.30;;;;;;2256712;61;20405;-68
2023/06/02 05:34:33;0.00;0.00;0.62;0.00;0.00;0.62;5.10;2.93;;;25.40;22.30;;;;;;2257082;61;20500;-69
2023/06/02 05:37:19;0.00;0.00;0.62;0.00;0.00;0.62;5.10;3.50;;;25.30;22.30;;;;;;2257066;61;20397;-69
2023/06/02 05:40:05;0.00;0.00;0.62;0.00;0.00;0.62;4.33;3.07;;;25.40;22.30;;;;;;2257183;61;20473;-69
2023/06/02 05:42:51;0.00;0.00;0.62;0.00;0.00;0.62;4.53;3.33;;;25.40;22.30;;;;;;2254325;61;20366;-69
2023/06/02 05:45:37;0.00;0.00;0.62;0.00;0.00;0.62;5.40;2.90;;;25.40;22.30;;;;;;2257759;61;20350;-69
2023/06/02 05:48:23;0.00;0.00;0.62;0.00;0.00;0.62;5.93;3.47;;;25.30;22.30;;;;;;2257246;61;20835;-68
2023/06/02 05:51:09;0.00;0.00;0.62;0.00;0.00;0.62;3.73;3.07;;;25.40;22.30;;;;;;2256948;61;20410;-69
2023/06/02 05:53:56;0.00;0.00;0.62;0.00;0.00;0.62;5.30;3.17;;;25.30;22.30;;;;;;2257126;61;20910;-68
2023/06/02 05:56:41;0.00;0.00;0.62;0.00;0.00;0.62;4.50;2.97;;;25.30;22.30;;;;;;2256307;61;20393;-69
2023/06/02 05:59:26;0.00;0.00;0.62;0.00;0.00;0.62;5.37;3.00;;;25.40;22.40;;;;;;2256685;61;20933;-69
2023/06/02 06:02:12;0.00;0.00;0.62;0.00;0.00;0.62;4.93;3.27;;;25.30;22.40;;;;;;2255523;61;20386;-69
2023/06/02 06:04:58;0.00;0.00;0.62;0.00;0.00;0.62;5.23;3.47;;;25.30;22.40;;;;;;2256153;61;20433;-69
2023/06/02 06:07:44;0.00;0.00;0.62;0.00;0.00;0.62;4.40;2.97;;;25.30;22.90;;;;;;2256239;61;20393;-70
2023/06/02 06:10:29;0.00;0.00;0.62;0.00;0.00;0.62;7.00;3.47;;;25.40;22.50;;;;;;2255361;61;20406;-69
2023/06/02 06:13:16;0.00;0.00;0.62;0.00;0.00;0.62;5.20;3.00;;;25.30;22.40;;;;;;2256180;61;20910;-68
2023/06/02 06:16:02;0.00;0.00;0.62;0.00;0.00;0.62;3.30;2.60;;;25.30;22.40;;;;;;2256081;61;20365;-69
2023/06/02 06:18:47;0.00;0.00;0.62;0.00;0.00;0.62;4.13;2.50;;;25.40;22.50;;;;;;2256296;61;20393;-69
2023/06/02 06:21:32;0.00;0.00;0.62;0.00;0.00;0.62;7.10;3.10;;;25.30;22.90;;;;;;2255631;61;20444;-69
2023/06/02 06:24:18;0.00;0.00;0.62;0.00;0.00;0.62;5.50;3.07;;;25.40;22.50;;;;;;2256441;61;20898;-68
2023/06/02 06:27:03;0.00;0.00;0.62;0.00;0.00;0.62;6.07;2.50;;;25.30;22.40;;;;;;2256513;61;20371;-69
2023/06/02 06:29:49;0.00;0.00;0.62;0.00;0.00;0.62;6.03;3.13;;;25.30;22.40;;;;;;2256226;61;20432;-69
2023/06/02 06:32:34;0.00;0.00;0.62;0.00;0.00;0.62;3.60;2.67;;;25.30;22.40;;;;;;2255760;61;20381;-68
2023/06/02 06:35:20;0.00;0.00;0.62;0.00;0.00;0.62;3.73;2.70;;;25.30;22.40;;;;;;2256160;61;20389;-69
2023/06/02 06:38:05;0.00;0.00;0.62;0.00;0.00;0.62;4.73;2.90;;;25.30;22.40;;;;;;2255779;61;20454;-68
2023/06/02 06:40:52;0.00;0.00;0.62;0.00;0.00;0.62;4.07;2.20;;;25.30;22.40;;;;;;2255585;61;20431;-70
2023/06/02 06:43:38;0.00;0.00;0.62;0.00;0.00;0.62;4.20;2.83;;;25.30;22.40;;;;;;2253254;61;20365;-69
2023/06/02 06:46:28;0.00;0.00;0.62;0.00;0.00;0.62;3.93;2.53;;;25.30;22.40;;;;;;2255973;61;20420;-69
2023/06/02 06:49:13;0.00;0.00;0.62;0.00;0.00;0.62;3.50;3.07;;;25.30;22.40;;;;;;2255969;61;20774;-69
2023/06/02 06:51:58;0.00;0.00;0.62;0.00;0.00;0.62;4.80;2.70;;;25.30;22.40;;;;;;2256096;61;20389;-68
2023/06/02 06:54:43;0.00;0.00;0.62;0.00;0.00;0.62;3.50;2.90;;;25.30;22.40;;;;;;2255888;61;20411;-68
2023/06/02 06:57:29;0.00;0.00;0.62;0.00;0.00;0.62;5.10;3.63;;;25.30;22.40;;;;;;2255990;61;20385;-69
2023/06/02 07:00:15;0.00;0.00;0.62;0.00;0.00;0.62;4.67;2.60;;;25.30;22.40;;;;;;2255643;61;20365;-68
2023/06/02 07:03:00;0.00;0.00;0.62;0.00;0.00;0.62;4.30;2.90;;;25.30;22.40;;;;;;2256408;61;20881;-69
2023/06/02 07:05:45;0.00;0.00;0.62;0.00;0.00;0.62;3.70;2.93;;;25.30;22.40;;;;;;2256383;61;20980;-69
2023/06/02 07:08:30;0.00;0.00;0.62;0.00;0.00;0.62;2.83;2.30;;;25.30;22.40;;;;;;2256773;61;20369;-69
2023/06/02 07:11:15;0.00;0.00;0.62;0.00;0.00;0.62;3.90;2.90;;;25.30;22.40;;;;;;2255809;61;20429;-69
2023/06/02 07:14:02;0.00;0.00;0.62;0.00;0.00;0.62;5.20;2.93;;;25.30;22.40;;;;;;2256245;61;20454;-70
2023/06/02 07:16:49;0.00;0.00;0.62;0.00;0.00;0.62;4.37;2.60;;;25.30;22.40;;;;;;2256100;61;20398;-69
2023/06/02 07:19:34;0.00;0.00;0.62;0.00;0.00;0.62;4.80;2.70;;;25.30;22.40;;;;;;2256198;61;20445;-69
2023/06/02 07:22:21;0.00;0.00;0.62;0.00;0.00;0.62;5.07;2.50;;;25.30;22.40;;;;;;2255731;61;20382;-69
2023/06/02 07:25:07;0.00;0.00;0.62;0.00;0.00;0.62;3.60;2.60;;;25.30;22.40;;;;;;2256007;61;20902;-69
2023/06/02 07:27:55;0.00;0.00;0.62;0.00;0.00;0.62;3.70;2.60;;;25.30;22.40;;;;;;2256326;61;20361;-69
2023/06/02 07:30:51;0.00;0.00;0.62;0.00;0.00;0.62;3.30;2.63;;;25.30;22.40;;;;;;2255865;61;20401;-68
2023/06/02 07:33:36;0.00;0.00;0.62;0.00;0.00;0.62;3.93;2.73;;;25.30;22.40;;;;;;2256492;61;20424;-69
2023/06/02 07:36:21;0.00;0.00;0.62;0.00;0.00;0.62;3.10;2.40;;;25.40;22.50;;;;;;2256329;61;20370;-69
2023/06/02 07:39:05;0.00;0.00;0.62;0.00;0.00;0.62;3.70;2.63;;;25.30;22.40;;;;;;2256230;61;20524;-69
2023/06/02 07:41:50;0.00;0.00;0.62;0.00;0.00;0.62;5.57;3.70;;;25.30;22.40;;;;;;2256045;61;20569;-69
2023/06/02 07:44:34;0.00;0.00;0.62;0.00;0.00;0.62;3.40;2.73;;;25.40;22.50;;;;;;2255822;61;20358;-69
2023/06/02 07:47:20;0.00;0.00;0.62;0.00;0.00;0.62;4.07;2.30;;;25.30;22.40;;;;;;2256183;61;20512;-68
2023/06/02 07:50:06;0.00;0.00;0.62;0.00;0.00;0.62;3.83;2.50;;;25.40;22.50;;;;;;2256705;61;20898;-68
2023/06/02 07:52:51;0.00;0.00;0.62;0.00;0.00;0.62;3.83;2.83;;;25.40;22.50;;;;;;2257094;61;20414;-69
2023/06/02 07:55:37;0.00;0.00;0.62;0.00;0.00;0.62;2.50;2.30;;;25.40;22.50;;;;;;2257012;61;20473;-69
2023/06/02 07:58:21;0.00;0.00;0.62;0.00;0.00;0.62;3.03;2.40;;;25.40;22.50;;;;;;2256897;61;20414;-70
2023/06/02 08:01:06;0.00;0.00;0.62;0.00;0.00;0.62;3.80;2.60;;;25.40;22.50;;;;;;2256183;61;20393;-69
2023/06/02 08:03:52;0.00;0.00;0.62;0.00;0.00;0.62;3.80;2.80;;;25.40;22.50;;;;;;2257117;61;20365;-69
2023/06/02 08:06:36;0.00;0.00;0.62;0.00;0.00;0.62;4.70;2.43;;;25.40;22.50;;;;;;2257259;61;20357;-70
2023/06/02 08:09:22;0.00;0.00;0.62;0.00;0.00;0.62;2.60;2.20;;;25.40;22.50;;;;;;2256810;61;20429;-70
2023/06/02 08:12:07;0.00;0.00;0.62;0.00;0.00;0.62;3.10;2.53;;;25.40;22.50;;;;;;2256508;61;20473;-70
2023/06/02 08:14:53;0.00;0.00;0.62;0.00;0.00;0.62;2.90;2.37;;;25.40;22.50;;;;;;2256494;61;20381;-69
2023/06/02 08:17:37;0.00;0.00;0.62;0.00;0.00;0.62;4.20;2.90;;;25.40;22.50;;;;;;2256700;61;20381;-69
2023/06/02 08:20:23;0.00;0.00;0.62;0.00;0.00;0.62;3.93;2.40;;;25.40;22.50;;;;;;2256176;61;20428;-70
2023/06/02 08:23:08;0.00;0.00;0.62;0.00;0.00;0.62;3.27;2.40;;;25.40;22.50;;;;;;2256718;61;20386;-69
2023/06/02 08:25:58;0.00;0.00;0.62;0.00;0.00;0.62;4.00;2.97;;;25.40;22.50;;;;;;2256996;61;20825;-69
2023/06/02 08:28:48;0.00;0.00;0.62;0.00;0.00;0.62;2.47;2.00;;;25.40;22.50;;;;;;2256916;61;20508;-68
2023/06/02 08:31:34;0.00;0.00;0.62;0.00;0.00;0.62;3.93;2.70;;;25.40;22.50;;;;;;2256140;61;20421;-70
2023/06/02 08:34:20;0.00;0.00;0.62;0.00;0.00;0.62;2.63;2.23;;;25.40;22.50;;;;;;2256834;61;20886;-69
2023/06/02 08:37:15;0.00;0.00;0.62;0.00;0.00;0.62;3.47;2.30;;;25.40;22.50;;;;;;2256815;61;20457;-72
2023/06/02 08:40:00;0.00;0.00;0.62;0.00;0.00;0.62;3.20;2.60;;;25.40;22.50;;;;;;2256920;61;20370;-69
2023/06/02 08:42:44;0.00;0.00;0.62;0.00;0.00;0.62;3.23;2.50;;;25.40;22.50;;;;;;2256679;61;20366;-68
2023/06/02 08:45:29;0.00;0.00;0.62;0.00;0.00;0.62;3.57;2.53;;;25.40;22.50;;;;;;2256450;61;20894;-69
2023/06/02 08:48:16;0.00;0.00;0.62;0.00;0.00;0.62;3.40;2.57;;;25.40;22.50;;;;;;2256955;61;20412;-69
2023/06/02 08:51:03;0.00;0.00;0.62;0.00;0.00;0.62;3.90;2.80;;;25.40;22.50;;;;;;2256197;61;20429;-67
2023/06/02 08:53:50;0.00;0.00;0.62;0.00;0.00;0.62;2.87;2.50;;;25.40;22.50;;;;;;2256698;61;20370;-69
2023/06/02 08:56:34;0.00;0.00;0.62;0.00;0.00;0.62;5.80;2.50;;;25.40;22.50;;;;;;2256736;61;20365;-69
2023/06/02 08:59:22;0.00;0.00;0.62;0.00;0.00;0.62;3.80;2.60;;;25.40;22.50;;;;;;2256260;61;20913;-70
2023/06/02 09:02:07;0.00;0.00;0.62;0.00;0.00;0.62;3.93;2.90;;;25.40;22.50;;;;;;2256217;61;20384;-69
2023/06/02 09:04:52;0.00;0.00;0.62;0.00;0.00;0.62;4.10;2.40;;;25.40;22.50;;;;;;2256862;61;20362;-71
2023/06/02 09:07:36;0.00;0.00;0.62;0.00;0.00;0.62;3.10;2.00;;;25.40;23.00;;;;;;2256074;61;20386;-70
2023/06/02 09:10:32;0.00;0.00;0.62;0.00;0.00;0.62;3.60;2.63;;;25.40;22.50;;;;;;2256449;61;20476;-69
2023/06/02 09:13:33;0.00;0.00;0.62;0.00;0.00;0.62;5.10;2.60;;;25.50;22.60;;;;;;2256301;61;20456;-69
2023/06/02 09:16:20;0.00;0.00;0.62;0.00;0.00;0.62;2.70;2.30;;;25.50;22.60;;;;;;2256593;61;20806;-69
2023/06/02 09:19:05;0.00;0.00;0.62;0.00;0.00;0.62;2.93;2.10;;;25.40;22.50;;;;;;2256744;61;20468;-69
2023/06/02 09:21:51;0.00;0.00;0.62;0.00;0.00;0.62;2.83;2.20;;;25.50;22.60;;;;;;2256187;61;20382;-69
2023/06/02 09:24:37;0.00;0.00;0.62;0.00;0.00;0.62;2.70;2.20;;;25.50;22.70;;;;;;2256919;61;20428;-70
2023/06/02 09:27:25;0.00;0.00;0.62;0.00;0.00;0.62;4.60;2.33;;;25.50;22.70;;;;;;2256805;61;20385;-68
2023/06/02 09:30:13;0.00;0.00;0.62;0.00;0.00;0.62;2.90;2.30;;;25.40;22.70;;;;;;2256038;61;20378;-68
2023/06/02 09:33:01;0.00;0.00;0.62;0.00;0.00;0.62;4.23;3.10;;;25.40;22.60;;;;;;2257026;61;20450;-69
2023/06/02 09:35:46;0.00;0.00;0.62;0.00;0.00;0.62;3.30;2.10;;;25.50;22.70;;;;;;2256745;61;20924;-67
2023/06/02 09:38:43;0.00;0.00;0.62;0.00;0.00;0.62;5.40;2.30;;;25.50;22.70;;;;;;2256478;61;20433;-69
2023/06/02 09:41:30;0.00;0.00;0.62;0.00;0.00;0.62;2.23;1.90;;;25.50;22.70;;;;;;2256276;61;20402;-69
2023/06/02 09:44:18;0.00;0.00;0.62;0.00;0.00;0.62;2.53;2.23;;;25.50;22.70;;;;;;2256460;61;20361;-68
2023/06/02 09:47:18;0.00;0.00;0.62;0.00;0.00;0.62;4.33;2.23;;;25.50;22.70;;;;;;2256747;61;20424;-70
2023/06/02 09:50:04;0.00;0.00;0.62;0.00;0.00;0.62;4.03;2.23;;;25.50;22.70;;;;;;2256557;61;20369;-68
2023/06/02 09:53:01;0.00;0.00;0.62;0.00;0.00;0.62;3.13;2.30;;;25.50;22.70;;;;;;2256612;61;20766;-69
2023/06/02 09:55:48;0.00;0.00;0.62;0.00;0.00;0.62;2.57;1.83;;;25.50;22.80;;;;;;2256753;61;20409;-68
2023/06/02 09:58:33;0.00;0.00;0.62;0.00;0.00;0.62;3.20;2.20;;;25.50;22.80;;;;;;2256517;61;20474;-70
2023/06/02 10:01:20;0.00;0.00;0.62;0.00;0.00;0.62;3.03;2.07;;;25.50;22.80;;;;;;2255980;61;20409;-68
2023/06/02 10:04:06;0.00;0.00;0.62;0.00;0.00;0.62;2.80;2.10;;;25.50;22.80;;;;;;2256692;61;20362;-69
2023/06/02 10:07:06;0.00;0.00;0.62;0.00;0.00;0.62;2.80;1.90;;;25.50;22.80;;;;;;2255895;61;20886;-70
2023/06/02 10:10:09;0.00;0.00;0.62;0.00;0.00;0.62;2.77;2.20;;;25.50;22.80;;;;;;2256695;61;20901;-69
2023/06/02 10:13:15;0.00;0.00;0.62;0.00;0.00;0.62;3.90;2.03;;;25.50;22.80;;;;;;2256142;61;20465;-68
2023/06/02 10:16:38;0.00;0.00;0.62;0.00;0.00;0.62;3.00;1.80;;;25.50;22.80;;;;;;2256416;61;20358;-69
2023/06/02 10:20:05;0.00;0.00;0.62;0.00;0.00;0.62;3.40;1.80;;;25.60;22.90;;;;;;2256571;61;20398;-67
2023/06/02 10:23:23;0.00;0.00;0.62;0.00;0.00;0.62;2.67;2.20;;;25.50;22.80;;;;;;2256242;61;20420;-69
2023/06/02 10:26:29;0.00;0.00;0.62;0.00;0.00;0.62;3.60;2.27;;;25.60;22.90;;;;;;2256130;61;20366;-69
2023/06/02 10:29:15;0.00;0.00;0.62;0.00;0.00;0.62;4.10;2.50;;;25.60;22.90;;;;;;2255853;61;20362;-68
2023/06/02 10:32:21;0.00;0.00;0.62;0.00;0.00;0.62;2.70;1.93;;;25.60;22.90;;;;;;2256111;61;20404;-69
2023/06/02 10:35:07;0.00;0.00;0.62;0.00;0.00;0.62;2.50;1.77;;;25.60;22.90;;;;;;2256237;61;20366;-69
2023/06/02 10:38:27;0.00;0.00;0.62;0.00;0.00;0.62;2.30;1.80;;;25.60;22.90;;;;;;2256370;61;20369;-69
2023/06/02 10:41:14;0.00;0.00;0.62;0.00;0.00;0.62;2.70;1.60;;;25.60;22.90;;;;;;2255825;61;20432;-68
2023/06/02 10:44:22;0.00;0.00;0.62;0.00;0.00;0.62;3.17;1.90;;;25.60;22.90;;;;;;2256228;61;20369;-68
2023/06/02 10:47:36;0.00;0.00;0.62;0.00;0.00;0.62;3.20;2.30;;;25.60;22.90;;;;;;2256497;61;20370;-69
2023/06/02 10:50:21;0.00;0.00;0.62;0.00;0.00;0.62;3.07;1.93;;;25.60;22.90;;;;;;2256069;61;20459;-69
2023/06/02 10:53:10;0.00;0.00;0.62;0.00;0.00;0.62;2.10;1.67;;;25.70;23.00;;;;;;2256252;61;20409;-70
2023/06/02 10:55:55;0.00;0.00;0.62;0.00;0.00;0.62;2.93;2.03;;;25.60;23.50;;;;;;2256005;61;20473;-69
2023/06/02 10:58:49;0.00;0.00;0.62;0.00;0.00;0.62;2.60;1.70;;;25.70;23.00;;;;;;2256115;61;20402;-68
2023/06/02 11:01:47;0.00;0.00;0.62;0.00;0.00;0.62;2.53;1.70;;;25.70;23.00;;;;;;2255913;61;20385;-69